Time;durP1;ratioP1;P1;durP2;ratioP2;P2;SDS_P1;SDS_P2;PMS_P1;PMS_P2;Temp;Humidity;BMP_temperature;BMP_pressure;BME280_temperature;BME280_humidity;BME280_pressure;Samples;Min_cycle;Max_cycle;Signal;HPM_P1;HPM_P2
2021/12/28 00:01:20;;;;;;;6.00;4.63;;;6.60;99.90;;;;;;4993696;28;20610;-80
2021/12/28 00:03:46;;;;;;;7.30;3.90;;;6.60;99.90;;;;;;4995258;28;20203;-81
2021/12/28 00:06:14;;;;;;;5.50;3.93;;;6.70;99.90;;;;;;4993837;28;20187;-81
2021/12/28 00:08:40;;;;;;;6.47;3.83;;;6.60;99.90;;;;;;4994963;28;20466;-80
2021/12/28 00:11:06;;;;;;;7.53;3.65;;;6.70;99.90;;;;;;4994779;28;20214;-80
2021/12/28 00:13:33;;;;;;;7.32;3.40;;;6.70;99.90;;;;;;4995075;28;20210;-80
2021/12/28 00:18:28;;;;;;;10.25;3.60;;;6.70;99.90;;;;;;4994855;28;20187;-80
2021/12/28 00:20:57;;;;;;;13.63;4.47;;;6.70;99.90;;;;;;4994392;28;20205;-81
2021/12/28 00:23:36;;;;;;;6.22;3.47;;;6.70;99.90;;;;;;4994878;28;20203;-81
2021/12/28 00:26:01;;;;;;;9.27;3.35;;;6.70;99.90;;;;;;4993655;28;20184;-81
2021/12/28 00:28:27;;;;;;;7.73;3.40;;;6.70;99.90;;;;;;4994759;28;20211;-81
2021/12/28 00:30:53;;;;;;;6.13;3.73;;;6.70;99.90;;;;;;4994181;28;20959;-80
2021/12/28 00:33:22;;;;;;;8.27;3.80;;;6.80;99.90;;;;;;4994983;28;20176;-80
2021/12/28 00:35:47;;;;;;;10.20;3.47;;;6.80;99.90;;;;;;4994888;28;20172;-81
2021/12/28 00:38:18;;;;;;;5.63;3.57;;;6.70;99.90;;;;;;4994708;28;20199;-81
2021/12/28 00:40:45;;;;;;;11.45;2.80;;;6.80;99.90;;;;;;4992944;28;20242;-80
2021/12/28 00:43:11;;;;;;;6.20;3.25;;;6.80;99.90;;;;;;4994601;28;20232;-81
2021/12/28 00:45:36;;;;;;;9.57;3.00;;;7.00;99.90;;;;;;4994636;28;20175;-80
2021/12/28 00:48:02;;;;;;;10.13;3.30;;;7.00;99.90;;;;;;4994446;28;20260;-80
2021/12/28 00:50:30;;;;;;;11.10;3.07;;;7.00;99.90;;;;;;4992975;28;20746;-80
2021/12/28 00:52:56;;;;;;;14.40;2.67;;;7.00;99.90;;;;;;4994191;28;20407;-81
2021/12/28 00:55:22;;;;;;;12.93;2.92;;;7.10;99.90;;;;;;4994320;28;20176;-80
2021/12/28 00:57:48;;;;;;;15.00;2.95;;;7.20;99.90;;;;;;4994345;28;20223;-81
2021/12/28 01:00:23;;;;;;;12.93;3.67;;;7.30;99.90;;;;;;4993899;28;20551;-81
2021/12/28 01:02:50;;;;;;;11.27;3.05;;;7.40;99.90;;;;;;4993280;28;20209;-81
2021/12/28 01:05:16;;;;;;;10.65;2.70;;;7.40;99.90;;;;;;4994167;28;20176;-80
2021/12/28 01:07:42;;;;;;;7.60;2.53;;;7.50;99.90;;;;;;4994140;28;20635;-81
2021/12/28 01:10:13;;;;;;;14.03;3.13;;;7.50;99.90;;;;;;4993712;28;20328;-80
2021/12/28 01:12:39;;;;;;;12.40;3.75;;;7.60;99.90;;;;;;4994025;28;20175;-81
2021/12/28 01:15:07;;;;;;;15.90;3.33;;;7.70;99.90;;;;;;4993846;28;20287;-81
2021/12/28 01:17:36;;;;;;;16.48;3.22;;;7.70;99.90;;;;;;4994007;28;20422;-81
2021/12/28 01:20:05;;;;;;;17.70;4.07;;;7.70;99.90;;;;;;4993752;28;20652;-81
2021/12/28 01:22:31;;;;;;;16.60;3.20;;;7.80;99.90;;;;;;4993929;28;20210;-81
2021/12/28 01:24:57;;;;;;;22.92;3.80;;;7.80;99.90;;;;;;4994077;28;20178;-81
2021/12/28 01:27:23;;;;;;;14.23;3.63;;;7.90;99.90;;;;;;4992865;28;20183;-81
2021/12/28 01:29:49;;;;;;;13.73;3.70;;;7.80;99.90;;;;;;4993397;28;20205;-82
2021/12/28 01:32:15;;;;;;;16.47;4.00;;;7.90;99.90;;;;;;4993706;28;20203;-81
2021/12/28 01:34:41;;;;;;;16.30;3.57;;;7.80;99.90;;;;;;4992710;28;20627;-81
2021/12/28 01:37:07;;;;;;;22.60;4.20;;;7.80;99.90;;;;;;4993686;28;20439;-80
2021/12/28 01:39:33;;;;;;;20.50;3.42;;;7.80;99.90;;;;;;4992379;28;20430;-81
2021/12/28 01:42:02;;;;;;;8.50;2.77;;;7.80;99.90;;;;;;4993654;28;20618;-82
2021/12/28 01:44:29;;;;;;;23.45;4.15;;;7.80;99.90;;;;;;4993727;28;20596;-81
2021/12/28 01:46:55;;;;;;;11.82;2.65;;;7.80;99.90;;;;;;4994030;28;20179;-82
2021/12/28 01:49:21;;;;;;;23.05;4.80;;;7.80;99.90;;;;;;4993370;28;20676;-82
2021/12/28 01:51:47;;;;;;;18.03;3.60;;;7.90;99.90;;;;;;4993896;28;20195;-81
2021/12/28 01:54:12;;;;;;;13.83;3.13;;;7.90;99.90;;;;;;4993775;28;20498;-82
2021/12/28 01:56:44;;;;;;;15.30;3.60;;;7.90;99.90;;;;;;4993527;28;20415;-81
2021/12/28 01:59:10;;;;;;;25.88;3.92;;;7.90;99.90;;;;;;4993494;28;20182;-81
2021/12/28 02:01:36;;;;;;;15.48;3.35;;;7.90;99.90;;;;;;4993469;28;20563;-82
2021/12/28 02:04:11;;;;;;;14.80;3.47;;;7.80;99.90;;;;;;4992548;28;20282;-81
2021/12/28 02:06:36;;;;;;;14.75;4.47;;;7.80;99.90;;;;;;4993521;28;20419;-81
2021/12/28 02:09:03;;;;;;;9.10;2.93;;;7.80;99.90;;;;;;4992241;28;20200;-81
2021/12/28 02:11:28;;;;;;;15.10;3.67;;;7.80;99.90;;;;;;4993014;28;20206;-80
2021/12/28 02:13:54;;;;;;;16.07;3.43;;;7.80;99.90;;;;;;4995116;28;20546;-81
2021/12/28 02:16:21;;;;;;;14.63;3.77;;;7.90;99.90;;;;;;4996335;28;20198;-81
2021/12/28 02:18:46;;;;;;;20.20;3.20;;;7.90;99.90;;;;;;4997150;28;20179;-81
2021/12/28 02:21:12;;;;;;;22.07;4.03;;;7.90;99.90;;;;;;4996862;28;20571;-81
2021/12/28 02:23:38;;;;;;;16.98;4.45;;;7.90;99.90;;;;;;4997016;28;20207;-83
2021/12/28 02:26:05;;;;;;;13.90;4.03;;;8.00;99.90;;;;;;4997244;28;20172;-82
2021/12/28 02:28:31;;;;;;;23.02;6.03;;;8.00;99.90;;;;;;4997018;28;20832;-81
2021/12/28 02:30:58;;;;;;;13.43;3.10;;;8.00;99.90;;;;;;4995409;28;20202;-81
2021/12/28 02:33:24;;;;;;;21.38;3.45;;;8.00;99.90;;;;;;4996917;28;20201;-81
2021/12/28 02:35:52;;;;;;;12.45;3.70;;;8.10;99.90;;;;;;4995771;28;20189;-81
2021/12/28 02:38:18;;;;;;;14.23;4.38;;;8.10;99.90;;;;;;4997154;28;20200;-80
2021/12/28 02:40:44;;;;;;;18.17;4.90;;;8.10;99.90;;;;;;4996554;28;20646;-79
2021/12/28 02:43:13;;;;;;;14.43;3.95;;;8.10;99.90;;;;;;4995538;28;20176;-79
2021/12/28 02:46:06;;;;;;;18.63;3.47;;;8.10;99.90;;;;;;4996811;28;20655;-79
2021/12/28 02:48:33;;;;;;;15.18;3.60;;;8.10;99.90;;;;;;4996381;28;20191;-79
2021/12/28 02:51:11;;;;;;;12.27;3.92;;;8.10;99.90;;;;;;4996284;28;20227;-79
2021/12/28 02:53:37;;;;;;;16.02;4.15;;;8.20;99.90;;;;;;4996527;28;20172;-79
2021/12/28 02:56:04;;;;;;;16.80;4.20;;;8.20;99.90;;;;;;4996498;28;20546;-80
2021/12/28 02:58:34;;;;;;;17.85;4.03;;;8.20;99.90;;;;;;4995235;28;20183;-80
2021/12/28 03:01:09;;;;;;;18.50;4.70;;;8.20;99.90;;;;;;4996014;28;20192;-79
2021/12/28 03:03:35;;;;;;;19.63;3.95;;;8.20;99.90;;;;;;4996306;28;20183;-80
2021/12/28 03:06:04;;;;;;;23.80;4.68;;;8.20;99.90;;;;;;4995016;28;20187;-80
2021/12/28 03:08:31;;;;;;;24.77;4.20;;;8.20;99.90;;;;;;4996209;28;20226;-80
2021/12/28 03:11:01;;;;;;;14.43;3.63;;;8.20;99.90;;;;;;4994794;28;20505;-80
2021/12/28 03:13:54;;;;;;;17.48;3.90;;;8.20;99.90;;;;;;4996223;28;20176;-81
2021/12/28 03:16:21;;;;;;;16.63;3.78;;;8.20;99.90;;;;;;4994577;28;20564;-80
2021/12/28 03:18:47;;;;;;;20.63;6.47;;;8.30;99.90;;;;;;4994821;28;20275;-80
2021/12/28 03:21:15;;;;;;;13.63;3.90;;;8.30;99.90;;;;;;4995631;28;20282;-80
2021/12/28 03:23:42;;;;;;;16.48;3.85;;;8.30;99.90;;;;;;4995962;28;20424;-81
2021/12/28 03:26:08;;;;;;;16.35;4.13;;;8.30;99.90;;;;;;4995200;28;20202;-80
2021/12/28 03:28:36;;;;;;;19.95;4.80;;;8.30;99.90;;;;;;4996006;28;20209;-80
2021/12/28 03:31:05;;;;;;;10.95;3.70;;;8.30;99.90;;;;;;4995488;28;20593;-80
2021/12/28 03:33:33;;;;;;;16.77;3.90;;;8.30;99.90;;;;;;4994936;28;20236;-81
2021/12/28 03:35:59;;;;;;;21.38;3.83;;;8.30;99.90;;;;;;4994700;28;20180;-80
2021/12/28 03:38:25;;;;;;;13.88;2.70;;;8.40;99.90;;;;;;4995949;28;20239;-81
2021/12/28 03:40:52;;;;;;;16.45;3.67;;;8.40;99.90;;;;;;4995401;28;20200;-81
2021/12/28 03:43:18;;;;;;;15.05;3.80;;;8.50;99.90;;;;;;4995760;28;20527;-80
2021/12/28 03:45:45;;;;;;;15.05;3.47;;;8.50;99.90;;;;;;4995692;28;20254;-81
2021/12/28 03:48:10;;;;;;;32.25;4.53;;;8.50;99.90;;;;;;4995418;28;20183;-81
2021/12/28 03:50:37;;;;;;;14.80;3.43;;;8.50;99.90;;;;;;4995068;28;20583;-81
2021/12/28 03:53:03;;;;;;;16.60;4.72;;;8.50;99.90;;;;;;4995809;28;20446;-81
2021/12/28 03:55:29;;;;;;;16.77;3.50;;;8.50;99.90;;;;;;4995713;28;20178;-81
2021/12/28 03:57:58;;;;;;;22.60;3.93;;;8.50;99.90;;;;;;4994252;28;20278;-81
2021/12/28 04:00:24;;;;;;;12.77;3.30;;;8.60;99.90;;;;;;4978035;28;20437;-81
2021/12/28 04:02:50;;;;;;;13.13;3.30;;;8.50;99.90;;;;;;4977876;28;20273;-81
2021/12/28 04:05:16;;;;;;;13.43;2.80;;;8.50;99.90;;;;;;4994183;28;20584;-81
2021/12/28 04:07:43;;;;;;;11.15;3.90;;;8.50;99.90;;;;;;4995277;28;20183;-82
2021/12/28 04:10:11;;;;;;;14.95;3.83;;;8.50;99.90;;;;;;4994705;28;20192;-81
2021/12/28 04:12:38;;;;;;;14.90;3.90;;;8.60;99.90;;;;;;4995054;28;20221;-81
2021/12/28 04:15:06;;;;;;;16.20;3.45;;;8.60;99.90;;;;;;4995025;28;20649;-81
2021/12/28 04:17:33;;;;;;;13.02;3.42;;;8.60;99.90;;;;;;4994873;28;20190;-81
2021/12/28 04:19:59;;;;;;;12.32;3.50;;;8.50;99.90;;;;;;4994721;28;20180;-81
2021/12/28 04:22:25;;;;;;;9.70;2.60;;;8.60;99.90;;;;;;4994724;28;20294;-81
2021/12/28 04:24:50;;;;;;;11.33;2.53;;;8.60;99.90;;;;;;4994891;28;20422;-81
2021/12/28 04:27:16;;;;;;;16.37;3.90;;;8.60;99.90;;;;;;4994857;28;20464;-81
2021/12/28 04:29:42;;;;;;;17.03;2.90;;;8.60;99.90;;;;;;4994368;28;20249;-81
2021/12/28 04:32:08;;;;;;;11.80;2.93;;;8.60;99.90;;;;;;4994787;28;20238;-80
2021/12/28 04:34:34;;;;;;;20.07;2.90;;;8.50;99.90;;;;;;4994595;28;20690;-81
2021/12/28 04:36:59;;;;;;;14.38;3.08;;;8.60;99.90;;;;;;4993656;28;20415;-80
2021/12/28 04:39:25;;;;;;;12.23;2.97;;;8.60;99.90;;;;;;4994273;28;20187;-80
2021/12/28 04:41:51;;;;;;;14.30;3.30;;;8.70;99.90;;;;;;4994857;28;20587;-81
2021/12/28 04:44:23;;;;;;;9.43;2.47;;;8.70;99.90;;;;;;4994725;28;20258;-80
2021/12/28 04:46:49;;;;;;;16.38;3.75;;;8.70;99.90;;;;;;4994653;28;20179;-81
2021/12/28 04:49:16;;;;;;;8.23;2.50;;;8.70;99.90;;;;;;4994258;28;20199;-80
2021/12/28 04:51:42;;;;;;;10.38;2.28;;;8.60;99.90;;;;;;4993438;28;20199;-81
2021/12/28 04:54:11;;;;;;;13.20;2.83;;;8.70;99.90;;;;;;4994499;28;20187;-81
2021/12/28 04:56:38;;;;;;;14.55;2.88;;;8.60;99.90;;;;;;4994342;28;20178;-80
2021/12/28 04:59:04;;;;;;;7.60;2.67;;;8.60;99.90;;;;;;4993170;28;20179;-80
2021/12/28 05:01:29;;;;;;;9.47;2.37;;;8.60;99.90;;;;;;4992544;28;20273;-80
2021/12/28 05:03:55;;;;;;;15.13;2.90;;;8.60;99.90;;;;;;4994244;28;20182;-80
2021/12/28 05:06:21;;;;;;;7.97;2.53;;;8.70;99.90;;;;;;4992945;28;20226;-80
2021/12/28 05:08:46;;;;;;;10.50;2.80;;;8.60;99.90;;;;;;4994038;28;20200;-81
2021/12/28 05:11:14;;;;;;;9.90;2.03;;;8.60;99.90;;;;;;4993806;28;20684;-80
2021/12/28 05:13:40;;;;;;;9.98;2.63;;;8.70;99.90;;;;;;4992839;28;20211;-80
2021/12/28 05:16:06;;;;;;;11.80;2.25;;;8.60;99.90;;;;;;4994018;28;20266;-81
2021/12/28 05:18:32;;;;;;;9.63;2.58;;;8.70;99.90;;;;;;4993885;28;20260;-80
2021/12/28 05:20:57;;;;;;;11.07;2.87;;;8.70;99.90;;;;;;4993458;28;20598;-80
2021/12/28 05:23:23;;;;;;;7.53;2.20;;;8.70;99.90;;;;;;4992890;28;20183;-81
2021/12/28 05:25:49;;;;;;;10.00;2.30;;;8.70;99.90;;;;;;4993930;28;20193;-80
2021/12/28 05:28:14;;;;;;;9.87;2.87;;;8.70;99.90;;;;;;4993904;28;20575;-81
2021/12/28 05:30:40;;;;;;;13.80;2.53;;;8.70;99.90;;;;;;4993339;28;20221;-81
2021/12/28 05:33:06;;;;;;;6.57;1.83;;;8.70;99.90;;;;;;4993938;28;20172;-80
2021/12/28 05:35:32;;;;;;;6.82;2.60;;;8.70;99.90;;;;;;4993785;28;20218;-81
2021/12/28 05:37:58;;;;;;;8.38;2.67;;;8.70;99.90;;;;;;4993918;28;20182;-80
2021/12/28 05:40:24;;;;;;;8.95;2.47;;;8.70;99.90;;;;;;4992379;28;20190;-81
2021/12/28 05:42:50;;;;;;;6.05;1.70;;;8.70;99.90;;;;;;4992466;28;20265;-80
2021/12/28 05:45:16;;;;;;;8.53;2.10;;;8.60;99.90;;;;;;4993618;28;20610;-81
2021/12/28 05:47:41;;;;;;;13.53;2.37;;;8.70;99.90;;;;;;4992668;28;20183;-81
2021/12/28 05:50:09;;;;;;;9.33;2.20;;;8.70;99.90;;;;;;4997269;28;20320;-80
2021/12/28 05:52:34;;;;;;;13.23;2.88;;;8.70;99.90;;;;;;4997600;28;20191;-80
2021/12/28 05:55:00;;;;;;;8.80;2.83;;;8.70;99.90;;;;;;4997543;28;20258;-80
2021/12/28 05:57:26;;;;;;;7.30;2.87;;;8.70;99.90;;;;;;4997591;28;20554;-81
2021/12/28 05:59:52;;;;;;;7.30;2.77;;;8.70;99.90;;;;;;4997556;28;20990;-82
2021/12/28 06:02:17;;;;;;;9.67;2.47;;;8.70;99.90;;;;;;4997473;28;20305;-81
2021/12/28 06:04:43;;;;;;;16.50;3.30;;;8.70;99.90;;;;;;4996283;28;20191;-80
2021/12/28 06:07:09;;;;;;;8.93;2.50;;;8.70;99.90;;;;;;4997358;28;20177;-81
2021/12/28 06:09:35;;;;;;;7.30;2.50;;;8.70;99.90;;;;;;4995862;28;20241;-81
2021/12/28 06:12:00;;;;;;;9.87;2.33;;;8.70;99.90;;;;;;4997286;28;20551;-82
2021/12/28 06:14:26;;;;;;;9.17;2.50;;;8.70;99.90;;;;;;4997384;28;20210;-81
2021/12/28 06:16:52;;;;;;;9.03;2.27;;;8.70;99.90;;;;;;4997270;28;20168;-82
2021/12/28 06:19:17;;;;;;;4.97;3.07;;;8.80;99.90;;;;;;4996792;28;20189;-82
2021/12/28 06:21:43;;;;;;;6.43;3.70;;;8.80;99.90;;;;;;4997061;28;20206;-80
2021/12/28 06:24:09;;;;;;;7.03;3.10;;;8.80;99.90;;;;;;4995826;28;20198;-81
2021/12/28 06:26:35;;;;;;;7.10;2.97;;;8.80;99.90;;;;;;4997123;28;20196;-81
2021/12/28 06:29:04;;;;;;;4.65;2.70;;;8.70;99.90;;;;;;4996870;28;20203;-80
2021/12/28 06:31:29;;;;;;;9.85;2.83;;;8.80;99.90;;;;;;4996376;28;20194;-82
2021/12/28 06:33:57;;;;;;;8.80;3.03;;;8.80;99.90;;;;;;4995867;28;20540;-81
2021/12/28 06:36:23;;;;;;;7.30;2.92;;;8.80;99.90;;;;;;4996939;28;20168;-81
2021/12/28 06:38:49;;;;;;;5.63;3.00;;;8.70;99.90;;;;;;4996904;28;20243;-82
2021/12/28 06:41:15;;;;;;;15.35;4.63;;;8.80;99.90;;;;;;4996271;28;20199;-82
2021/12/28 06:43:40;;;;;;;7.80;3.40;;;8.70;99.90;;;;;;4996646;28;20186;-82
2021/12/28 06:46:06;;;;;;;8.70;3.90;;;8.70;99.90;;;;;;4996718;28;20229;-81
2021/12/28 06:48:32;;;;;;;7.00;3.30;;;8.70;99.90;;;;;;4995443;28;20216;-81
2021/12/28 06:50:58;;;;;;;8.60;4.07;;;8.70;99.90;;;;;;4978854;28;20561;-82
2021/12/28 06:53:23;;;;;;;8.60;4.50;;;8.70;99.90;;;;;;4996538;28;20415;-81
2021/12/28 06:55:49;;;;;;;8.43;4.50;;;8.60;99.90;;;;;;4996557;28;20175;-81
2021/12/28 06:58:15;;;;;;;11.67;4.47;;;8.60;99.90;;;;;;4996721;28;20178;-81
2021/12/28 07:00:40;;;;;;;8.90;5.10;;;8.60;99.90;;;;;;4994991;28;20592;-82
2021/12/28 07:03:06;;;;;;;8.57;3.67;;;8.60;99.90;;;;;;4996225;28;20197;-81
2021/12/28 07:05:32;;;;;;;7.47;4.32;;;8.60;99.90;;;;;;4996581;28;20180;-82
2021/12/28 07:07:58;;;;;;;8.40;3.97;;;8.60;99.90;;;;;;4996360;28;20200;-81
2021/12/28 07:10:23;;;;;;;6.53;3.60;;;8.60;99.90;;;;;;4995796;28;20480;-82
2021/12/28 07:12:53;;;;;;;10.50;4.83;;;8.60;99.90;;;;;;4994920;28;20184;-82
2021/12/28 07:15:20;;;;;;;9.65;4.65;;;8.60;99.90;;;;;;4996105;28;20172;-82
2021/12/28 07:17:46;;;;;;;15.90;4.88;;;8.60;99.90;;;;;;4994827;28;20202;-82
2021/12/28 07:20:13;;;;;;;10.48;5.10;;;8.50;99.90;;;;;;4995746;28;20201;-82
2021/12/28 07:22:39;;;;;;;8.82;4.90;;;8.40;99.90;;;;;;4994862;28;20258;-81
2021/12/28 07:25:06;;;;;;;10.73;4.93;;;8.40;99.90;;;;;;4994732;28;20573;-82
2021/12/28 07:27:31;;;;;;;8.75;3.95;;;8.30;99.90;;;;;;4995992;28;20208;-82
2021/12/28 07:29:57;;;;;;;15.60;5.33;;;8.20;99.90;;;;;;4995537;28;20212;-82
2021/12/28 07:32:23;;;;;;;7.13;4.10;;;8.10;99.90;;;;;;4995831;28;20196;-82
2021/12/28 07:34:48;;;;;;;8.97;4.10;;;8.00;99.90;;;;;;4994751;28;20172;-82
2021/12/28 07:37:14;;;;;;;8.27;5.27;;;8.00;99.90;;;;;;4995992;28;20176;-81
2021/12/28 07:39:40;;;;;;;10.07;4.53;;;7.90;99.90;;;;;;4995721;28;20182;-82
2021/12/28 07:42:06;;;;;;;8.93;3.43;;;7.90;99.90;;;;;;4995580;28;20198;-82
2021/12/28 07:44:32;;;;;;;7.85;3.95;;;7.90;99.90;;;;;;4995776;28;20187;-83
2021/12/28 07:46:57;;;;;;;9.33;4.80;;;7.90;99.90;;;;;;4995793;28;20175;-82
2021/12/28 07:49:23;;;;;;;12.10;4.90;;;7.90;99.90;;;;;;4994003;28;20470;-81
2021/12/28 07:51:50;;;;;;;9.43;4.40;;;8.00;99.90;;;;;;4994096;28;20704;-82
2021/12/28 07:54:15;;;;;;;7.45;4.40;;;8.00;99.90;;;;;;4995464;28;20212;-81
2021/12/28 07:56:41;;;;;;;8.77;4.17;;;8.10;99.90;;;;;;4995779;28;20218;-82
2021/12/28 07:59:07;;;;;;;11.30;5.20;;;8.10;99.90;;;;;;4995391;28;20310;-83
2021/12/28 08:01:34;;;;;;;13.02;6.18;;;8.10;99.90;;;;;;4994988;28;20208;-82
2021/12/28 08:04:00;;;;;;;10.43;5.15;;;8.20;99.90;;;;;;4995433;28;20244;-83
2021/12/28 08:06:25;;;;;;;10.03;4.70;;;8.20;99.90;;;;;;4995473;28;20680;-82
2021/12/28 08:08:51;;;;;;;12.30;6.50;;;8.20;99.90;;;;;;4995351;28;20244;-82
2021/12/28 08:11:17;;;;;;;11.70;6.13;;;8.30;99.90;;;;;;4994561;28;20198;-83
2021/12/28 08:13:42;;;;;;;10.87;6.20;;;8.30;99.90;;;;;;4995310;28;20608;-82
2021/12/28 08:16:08;;;;;;;12.90;5.20;;;8.30;99.90;;;;;;4995001;28;20212;-83
2021/12/28 08:18:34;;;;;;;11.83;6.10;;;8.30;99.90;;;;;;4995043;28;20220;-82
2021/12/28 08:20:59;;;;;;;11.83;5.60;;;8.30;99.90;;;;;;4994574;28;20195;-82
2021/12/28 08:23:25;;;;;;;9.67;4.80;;;8.30;99.90;;;;;;4995097;28;20685;-82
2021/12/28 08:25:51;;;;;;;14.17;4.80;;;8.20;99.90;;;;;;4994935;28;20419;-82
2021/12/28 08:28:16;;;;;;;11.20;4.87;;;8.20;99.90;;;;;;4993433;28;20180;-82
2021/12/28 08:30:45;;;;;;;8.27;4.40;;;8.30;99.90;;;;;;4994205;28;20226;-82
2021/12/28 08:33:11;;;;;;;7.82;3.92;;;8.20;99.90;;;;;;4994788;28;20457;-82
2021/12/28 08:35:39;;;;;;;4.53;3.30;;;8.20;99.90;;;;;;4994994;28;20182;-82
2021/12/28 08:38:10;;;;;;;8.00;3.72;;;8.30;99.90;;;;;;4977742;28;20180;-82
2021/12/28 08:40:38;;;;;;;11.27;3.90;;;8.30;99.90;;;;;;4994339;28;20234;-83
2021/12/28 08:43:03;;;;;;;5.50;3.03;;;8.30;99.90;;;;;;4994441;28;20187;-82
2021/12/28 08:45:29;;;;;;;5.60;3.80;;;8.40;99.90;;;;;;4994660;28;20182;-82
2021/12/28 08:47:55;;;;;;;11.40;4.40;;;8.40;99.90;;;;;;4994497;28;20937;-82
2021/12/28 08:50:21;;;;;;;6.43;3.97;;;8.50;99.90;;;;;;4992788;28;20196;-82
2021/12/28 08:52:48;;;;;;;6.95;2.90;;;8.50;99.90;;;;;;4994516;28;20196;-82
2021/12/28 08:55:15;;;;;;;3.50;3.20;;;8.50;99.90;;;;;;4994294;28;20599;-83
2021/12/28 08:57:40;;;;;;;4.35;2.83;;;8.20;99.90;;;;;;4994455;28;20204;-83
2021/12/28 09:00:12;;;;;;;7.03;2.93;;;8.60;99.90;;;;;;4993981;28;20211;-82
2021/12/28 09:02:37;;;;;;;6.90;3.03;;;8.60;99.90;;;;;;4994018;28;20556;-82
2021/12/28 09:05:03;;;;;;;4.80;2.20;;;8.70;99.90;;;;;;4994176;28;20175;-82
2021/12/28 09:07:29;;;;;;;4.50;2.23;;;8.70;99.90;;;;;;4993082;28;20194;-83
2021/12/28 09:09:55;;;;;;;2.70;1.47;;;8.80;99.90;;;;;;4993782;28;20450;-83
2021/12/28 09:12:21;;;;;;;3.97;1.57;;;8.90;99.90;;;;;;4992868;28;20545;-82
2021/12/28 09:14:46;;;;;;;3.00;1.70;;;8.90;99.90;;;;;;4994123;28;20180;-82
2021/12/28 09:17:12;;;;;;;3.07;1.80;;;8.90;99.90;;;;;;4992850;28;20430;-83
2021/12/28 09:19:38;;;;;;;3.47;1.70;;;8.90;99.90;;;;;;4993738;28;20238;-82
2021/12/28 09:22:04;;;;;;;3.70;2.10;;;9.00;99.90;;;;;;4993883;28;20211;-82
2021/12/28 09:24:30;;;;;;;2.05;1.27;;;9.00;99.90;;;;;;4993371;28;20179;-82
2021/12/28 09:26:55;;;;;;;2.22;1.40;;;9.00;99.90;;;;;;4993894;28;20188;-81
2021/12/28 09:29:21;;;;;;;1.97;1.27;;;9.10;99.90;;;;;;4976087;28;20210;-82
2021/12/28 09:31:47;;;;;;;2.33;1.27;;;9.00;99.90;;;;;;4993953;28;20198;-83
2021/12/28 09:34:13;;;;;;;1.95;1.30;;;9.10;99.90;;;;;;4993827;28;20175;-83
2021/12/28 09:36:40;;;;;;;2.07;1.47;;;9.10;99.90;;;;;;4993824;28;20279;-83
2021/12/28 09:39:07;;;;;;;2.97;1.63;;;9.10;99.90;;;;;;4993623;28;20179;-82
2021/12/28 09:41:33;;;;;;;2.65;1.33;;;9.10;99.90;;;;;;4993693;28;20257;-82
2021/12/28 09:43:59;;;;;;;1.75;1.30;;;9.20;99.90;;;;;;4992468;28;20596;-82
2021/12/28 09:46:24;;;;;;;2.83;1.20;;;9.20;99.90;;;;;;4993915;28;20218;-82
2021/12/28 09:48:50;;;;;;;1.40;1.00;;;9.30;99.90;;;;;;4993413;28;20199;-82
2021/12/28 09:51:17;;;;;;;2.37;1.17;;;9.20;99.90;;;;;;4993477;28;20198;-83
2021/12/28 09:53:43;;;;;;;3.38;1.65;;;9.30;99.90;;;;;;4993702;28;20180;-83
2021/12/28 09:56:09;;;;;;;3.10;1.25;;;9.30;99.90;;;;;;4992347;28;20186;-83
2021/12/28 09:58:37;;;;;;;1.30;1.10;;;9.30;99.90;;;;;;4993721;28;20172;-83
2021/12/28 10:01:05;;;;;;;1.52;1.10;;;9.40;99.90;;;;;;4993152;28;20189;-82
2021/12/28 10:03:31;;;;;;;2.80;1.00;;;9.40;99.90;;;;;;4993884;28;20250;-84
2021/12/28 10:05:57;;;;;;;1.20;1.10;;;9.40;99.90;;;;;;4976211;28;20191;-83
2021/12/28 10:08:25;;;;;;;1.85;1.00;;;9.40;99.90;;;;;;4993715;28;20433;-84
2021/12/28 10:10:55;;;;;;;1.80;1.33;;;9.30;99.90;;;;;;4993081;28;20581;-83
2021/12/28 10:13:26;;;;;;;2.15;1.00;;;9.40;99.90;;;;;;4993619;28;20566;-83
2021/12/28 10:15:53;;;;;;;1.10;0.93;;;9.40;99.90;;;;;;4993607;28;20743;-83
2021/12/28 10:18:19;;;;;;;1.58;0.98;;;9.40;99.90;;;;;;4993484;28;20211;-81
2021/12/28 10:20:45;;;;;;;1.15;0.90;;;9.50;99.90;;;;;;4993124;28;20202;-83
2021/12/28 10:23:14;;;;;;;1.10;0.90;;;9.60;99.90;;;;;;4993361;28;20175;-83
2021/12/28 10:25:50;;;;;;;2.13;1.25;;;9.70;99.90;;;;;;4993439;28;20211;-84
2021/12/28 10:28:22;;;;;;;2.10;1.00;;;9.80;99.90;;;;;;4993516;28;20180;-81
2021/12/28 10:30:58;;;;;;;1.15;0.80;;;9.90;99.90;;;;;;4992841;28;20229;-83
2021/12/28 10:33:26;;;;;;;0.90;0.80;;;10.00;99.90;;;;;;4992455;28;20179;-82
2021/12/28 10:36:02;;;;;;;1.10;0.90;;;10.10;99.90;;;;;;4996630;28;20621;-82
2021/12/28 10:38:34;;;;;;;1.20;0.90;;;10.10;99.90;;;;;;4997043;28;20196;-81
2021/12/28 10:41:10;;;;;;;5.68;1.00;;;10.20;99.90;;;;;;4996593;28;20250;-83
2021/12/28 10:43:38;;;;;;;1.10;1.00;;;10.20;99.90;;;;;;4997072;28;20605;-83
2021/12/28 10:46:05;;;;;;;2.28;0.90;;;10.30;99.90;;;;;;4997157;28;20176;-81
2021/12/28 10:48:37;;;;;;;1.95;1.20;;;10.40;99.90;;;;;;4996839;28;20176;-82
2021/12/28 10:51:12;;;;;;;1.42;0.70;;;10.50;99.90;;;;;;4996490;28;20530;-83
2021/12/28 10:56:32;;;;;;;1.00;0.90;;;11.00;99.90;;;;;;4996839;28;20500;-81
2021/12/28 10:58:58;;;;;;;2.75;0.80;;;11.30;99.90;;;;;;4996650;28;20189;-82
2021/12/28 11:01:28;;;;;;;1.60;0.82;;;11.60;99.90;;;;;;4996108;28;20207;-81
2021/12/28 11:03:56;;;;;;;1.52;0.90;;;11.80;99.90;;;;;;4996653;28;20183;-80
2021/12/28 11:06:28;;;;;;;3.80;1.52;;;11.90;99.90;;;;;;4995342;28;20182;-84
2021/12/28 11:08:57;;;;;;;1.55;0.65;;;11.70;99.90;;;;;;4996538;28;20299;-83
2021/12/28 11:11:25;;;;;;;0.87;0.70;;;11.80;99.90;;;;;;4996004;28;20188;-81
2021/12/28 11:13:59;;;;;;;1.10;0.80;;;11.90;99.90;;;;;;4996498;28;20413;-83
2021/12/28 11:16:26;;;;;;;1.13;0.60;;;11.90;99.90;;;;;;4996387;28;20237;-83
2021/12/28 11:18:58;;;;;;;1.25;0.70;;;12.00;99.90;;;;;;4995096;28;20198;-81
2021/12/28 11:21:27;;;;;;;1.05;0.85;;;12.00;99.90;;;;;;4995875;28;20273;-83
2021/12/28 11:23:55;;;;;;;0.60;0.50;;;12.00;99.90;;;;;;4995006;28;20575;-83
2021/12/28 11:26:25;;;;;;;1.55;0.70;;;12.00;99.90;;;;;;4994918;28;20184;-82
2021/12/28 11:28:56;;;;;;;2.47;0.63;;;11.90;99.90;;;;;;4994756;28;20691;-81
2021/12/28 11:31:32;;;;;;;0.70;0.55;;;11.80;99.90;;;;;;4995441;28;20214;-83
2021/12/28 11:34:03;;;;;;;0.90;0.52;;;11.70;99.90;;;;;;4995928;28;20234;-80
2021/12/28 11:36:42;;;;;;;1.05;0.60;;;11.50;99.90;;;;;;4996144;28;20186;-80
2021/12/28 11:39:12;;;;;;;0.60;0.50;;;11.20;99.90;;;;;;4995780;28;20207;-81
2021/12/28 11:41:39;;;;;;;0.80;0.52;;;11.20;99.90;;;;;;4995649;28;20673;-80
2021/12/28 11:44:05;;;;;;;1.00;0.60;;;11.00;99.90;;;;;;4995774;28;20186;-79
2021/12/28 11:46:31;;;;;;;0.60;0.50;;;10.90;99.90;;;;;;4995234;28;20572;-81
2021/12/28 11:48:57;;;;;;;0.70;0.60;;;10.80;99.90;;;;;;4994812;28;20212;-81
2021/12/28 11:51:24;;;;;;;0.70;0.50;;;10.70;99.90;;;;;;4994309;28;20466;-81
2021/12/28 11:53:52;;;;;;;0.90;0.70;;;10.70;99.90;;;;;;4995393;28;20927;-81
2021/12/28 11:56:20;;;;;;;0.57;0.47;;;10.60;99.90;;;;;;4995343;28;20640;-81
2021/12/28 11:58:52;;;;;;;0.95;0.70;;;10.60;99.90;;;;;;4995465;28;20180;-81
2021/12/28 12:01:50;;;;;;;1.35;0.60;;;10.60;99.90;;;;;;4993724;28;20199;-81
2021/12/28 12:04:33;;;;;;;0.68;0.68;;;10.60;99.90;;;;;;4973184;28;20195;-81
2021/12/28 12:07:17;;;;;;;3.47;0.68;;;10.60;99.90;;;;;;4995174;28;20226;-82
2021/12/28 12:09:48;;;;;;;1.23;0.65;;;10.60;99.90;;;;;;4994834;28;20206;-81
2021/12/28 12:12:25;;;;;;;2.58;0.82;;;10.60;99.90;;;;;;4995195;28;20203;-82
2021/12/28 12:14:54;;;;;;;0.70;0.60;;;10.60;99.90;;;;;;4995312;28;20167;-82
2021/12/28 12:17:34;;;;;;;1.00;0.68;;;10.60;99.90;;;;;;4994896;28;20168;-82
2021/12/28 12:20:21;;;;;;;2.00;0.80;;;10.70;99.90;;;;;;4994553;28;20254;-81
2021/12/28 12:22:49;;;;;;;1.52;0.60;;;10.50;99.90;;;;;;4993824;28;20259;-81
2021/12/28 12:25:21;;;;;;;1.95;0.93;;;10.50;99.90;;;;;;4994926;28;20168;-80
2021/12/28 12:27:59;;;;;;;3.20;1.13;;;10.50;99.90;;;;;;4994854;28;20200;-79
2021/12/28 12:30:25;;;;;;;7.03;1.75;;;10.50;99.90;;;;;;4994386;28;20234;-81
2021/12/28 12:33:00;;;;;;;6.30;2.20;;;10.50;99.90;;;;;;4994857;28;20195;-82
2021/12/28 12:35:47;;;;;;;7.68;2.47;;;10.40;99.90;;;;;;4994757;28;20167;-82
2021/12/28 12:38:12;;;;;;;7.45;2.08;;;10.40;99.90;;;;;;4994665;28;20172;-82
2021/12/28 12:40:50;;;;;;;16.53;2.90;;;10.30;99.90;;;;;;4994284;28;20742;-82
2021/12/28 12:43:16;;;;;;;13.50;3.50;;;10.40;99.90;;;;;;4994755;28;20663;-82
2021/12/28 12:45:50;;;;;;;14.33;2.50;;;10.30;99.90;;;;;;4995045;28;20180;-83
2021/12/28 12:48:37;;;;;;;22.63;2.92;;;10.40;99.90;;;;;;4994557;28;20410;-83
2021/12/28 12:51:28;;;;;;;21.15;3.90;;;10.30;99.90;;;;;;4994163;28;20207;-81
2021/12/28 12:54:16;;;;;;;13.30;2.70;;;10.30;99.90;;;;;;4993253;28;20183;-82
2021/12/28 12:56:52;;;;;;;8.30;2.53;;;10.30;99.90;;;;;;4994520;28;20203;-84
2021/12/28 12:59:24;;;;;;;9.20;2.55;;;10.30;99.90;;;;;;4993368;28;20190;-82